Time;durP1;ratioP1;P1;durP2;ratioP2;P2;SDS_P1;SDS_P2;PMS_P1;PMS_P2;Temp;Humidity;BMP_temperature;BMP_pressure;BME280_temperature;BME280_humidity;BME280_pressure;Samples;Min_cycle;Max_cycle;Signal;HPM_P1;HPM_P2
2022/06/16 00:02:15;;;;;;;2.58;2.42;;;15.50;99.90;;;;;;4961042;28;20039;-92
2022/06/16 00:09:56;;;;;;;5.50;2.50;;;15.60;99.90;;;;;;4967492;28;20046;-92
2022/06/16 00:12:27;;;;;;;2.80;2.60;;;15.70;99.90;;;;;;4961129;28;20047;-91
2022/06/16 00:14:55;;;;;;;;;;;15.50;99.90;;;;;;4967181;28;20054;-91
2022/06/16 00:17:23;;;;;;;3.50;3.20;;;15.40;99.90;;;;;;4959088;29;19923;-92
2022/06/16 00:19:56;;;;;;;4.40;3.55;;;15.30;99.90;;;;;;4958464;28;20527;-90
2022/06/16 00:22:24;;;;;;;2.85;2.65;;;15.20;99.90;;;;;;4958331;28;20070;-90
2022/06/16 00:24:52;;;;;;;3.28;3.08;;;15.20;99.90;;;;;;4958481;29;20066;-91
2022/06/16 00:27:20;;;;;;;10.93;3.30;;;15.20;99.90;;;;;;4935505;29;20043;-78
2022/06/16 00:29:48;;;;;;;5.35;3.33;;;15.20;99.90;;;;;;4940320;28;20047;-90
2022/06/16 00:32:16;;;;;;;6.85;2.50;;;15.20;99.90;;;;;;4958561;29;20047;-92
2022/06/16 00:35:27;;;;;;;5.55;3.15;;;15.20;99.90;;;;;;4941183;29;20032;-90
2022/06/16 00:37:56;;;;;;;4.43;3.50;;;15.30;99.90;;;;;;4941182;29;20489;-91
2022/06/16 00:40:25;;;;;;;2.85;2.65;;;15.40;99.90;;;;;;4941955;29;20050;-91
2022/06/16 00:42:54;;;;;;;4.50;2.92;;;15.40;99.90;;;;;;4941817;29;20036;-92
2022/06/16 00:45:56;;;;;;;3.22;2.97;;;15.40;99.90;;;;;;4941874;29;20043;-91
2022/06/16 00:48:30;;;;;;;3.05;2.85;;;15.30;99.90;;;;;;4937484;29;20055;-86
2022/06/16 00:51:06;;;;;;;5.13;4.63;;;15.10;99.90;;;;;;4907585;29;20043;-91
2022/06/16 00:53:36;;;;;;;8.18;3.42;;;15.10;99.90;;;;;;4909680;29;20047;-90
2022/06/16 00:56:05;;;;;;;5.32;2.70;;;15.10;99.90;;;;;;4939881;28;20055;-90
2022/06/16 00:58:40;;;;;;;3.35;2.60;;;15.20;99.90;;;;;;4940851;29;20497;-90
2022/06/16 01:01:09;;;;;;;3.17;2.88;;;15.20;99.90;;;;;;4956505;29;20055;-91
2022/06/16 01:08:56;;;;;;;2.60;2.40;;;15.10;99.90;;;;;;4956255;29;20397;-92
2022/06/16 01:15:17;;;;;;;5.60;2.88;;;15.00;99.90;;;;;;4948392;28;20045;-91
2022/06/16 01:18:00;;;;;;;3.95;3.63;;;14.80;99.90;;;;;;4944638;28;20050;-90
2022/06/16 01:20:32;;;;;;;6.68;3.22;;;14.80;99.90;;;;;;4959221;28;20051;-92
2022/06/16 01:23:46;;;;;;;5.18;4.25;;;14.70;99.90;;;;;;4959405;28;20054;-92
2022/06/16 01:46:21;;;;;;;8.95;3.33;;;14.50;99.90;;;;;;4980955;28;20034;-90
2022/06/16 01:49:33;;;;;;;4.10;2.65;;;14.60;99.90;;;;;;4969137;28;20031;-91
2022/06/16 01:52:13;;;;;;;8.95;3.33;;;14.60;99.90;;;;;;4959634;28;20066;-92
2022/06/16 01:54:46;;;;;;;5.05;3.40;;;14.50;99.90;;;;;;4975274;28;20380;-90
2022/06/16 01:57:27;;;;;;;4.38;3.53;;;14.40;99.90;;;;;;4970579;28;20053;-91
2022/06/16 02:00:00;;;;;;;4.32;3.92;;;14.30;99.90;;;;;;4974901;28;20047;-91
2022/06/16 02:07:18;;;;;;;3.70;3.28;;;14.30;99.90;;;;;;4958356;28;20497;-92
2022/06/16 02:09:51;;;;;;;2.67;2.53;;;14.40;99.90;;;;;;4958320;28;20050;-91
2022/06/16 02:15:44;;;;;;;3.63;3.33;;;14.20;99.90;;;;;;4974289;28;20047;-94
2022/06/16 02:18:17;;;;;;;3.35;3.15;;;14.10;99.90;;;;;;4975655;28;20039;-91
2022/06/16 02:21:00;;;;;;;4.03;3.33;;;14.00;99.90;;;;;;4958959;28;20054;-92
2022/06/16 02:23:29;;;;;;;10.95;5.47;;;14.10;99.90;;;;;;4973652;28;20058;-91
2022/06/16 02:25:58;;;;;;;8.82;5.70;;;14.30;99.90;;;;;;4974227;28;20097;-91
2022/06/16 02:28:29;;;;;;;3.70;3.05;;;14.40;99.90;;;;;;4942870;28;20043;-91
2022/06/16 02:31:26;;;;;;;3.40;3.10;;;14.40;99.90;;;;;;4957590;28;20049;-91
2022/06/16 02:34:31;;;;;;;4.90;4.18;;;14.40;99.90;;;;;;4957841;28;20062;-91
2022/06/16 02:37:14;;;;;;;7.00;4.35;;;14.40;99.90;;;;;;4974980;28;20043;-91
2022/06/16 02:40:09;;;;;;;7.88;5.00;;;14.50;99.90;;;;;;4974848;28;20051;-89
2022/06/16 02:43:01;;;;;;;4.55;4.10;;;14.60;99.90;;;;;;4973785;28;20039;-90
2022/06/16 02:46:10;;;;;;;4.03;3.60;;;14.70;99.90;;;;;;4974113;28;20046;-91
2022/06/16 02:49:05;;;;;;;4.30;3.90;;;14.70;99.90;;;;;;4977778;28;20046;-89
2022/06/16 02:52:06;;;;;;;5.05;4.57;;;14.60;99.90;;;;;;4957094;28;20047;-90
2022/06/16 02:54:55;;;;;;;4.75;4.40;;;14.50;99.90;;;;;;4973989;28;20039;-90
2022/06/16 02:57:34;;;;;;;4.72;4.25;;;14.50;99.90;;;;;;4975608;28;20065;-89
2022/06/16 03:00:07;;;;;;;21.48;4.30;;;14.40;99.90;;;;;;4973777;28;20404;-80
2022/06/16 03:03:19;;;;;;;3.63;3.10;;;14.40;99.90;;;;;;4960297;28;20500;-91
2022/06/16 03:05:58;;;;;;;4.40;4.00;;;14.20;99.90;;;;;;4973805;28;20050;-91
2022/06/16 03:08:30;;;;;;;7.00;4.88;;;14.00;99.90;;;;;;4958148;28;20047;-91
2022/06/16 03:11:02;;;;;;;4.60;4.20;;;14.10;99.90;;;;;;4956491;28;20054;-91
2022/06/16 03:13:33;;;;;;;4.88;4.45;;;14.20;99.90;;;;;;4957383;28;20054;-91
2022/06/16 03:16:04;;;;;;;3.97;3.67;;;14.30;99.90;;;;;;4989327;28;20050;-90
2022/06/16 03:18:33;;;;;;;4.72;4.15;;;14.20;99.90;;;;;;4973258;28;20047;-89
2022/06/16 03:21:01;;;;;;;8.43;4.45;;;14.20;99.90;;;;;;4975041;28;20046;-92
2022/06/16 03:23:30;;;;;;;7.68;3.42;;;14.10;99.90;;;;;;4953044;28;20042;-90
2022/06/16 03:26:00;;;;;;;7.88;6.47;;;14.10;99.90;;;;;;4972967;28;20047;-91
2022/06/16 03:28:30;;;;;;;6.40;5.33;;;14.10;99.90;;;;;;4957992;28;20404;-91
2022/06/16 03:30:58;;;;;;;5.03;4.57;;;14.10;99.90;;;;;;4973645;28;20408;-91
2022/06/16 03:34:36;;;;;;;6.55;5.95;;;14.10;99.90;;;;;;4974093;28;20042;-91
2022/06/16 03:37:04;;;;;;;7.43;4.80;;;14.00;99.90;;;;;;4971744;28;20051;-81
2022/06/16 03:39:45;;;;;;;5.68;5.00;;;13.90;99.90;;;;;;4973436;28;20046;-91
2022/06/16 03:42:15;;;;;;;5.63;5.13;;;13.90;99.90;;;;;;4989793;28;20043;-91
2022/06/16 03:44:43;;;;;;;6.68;5.88;;;14.00;99.90;;;;;;4957604;28;20035;-91
2022/06/16 03:47:14;;;;;;;;;;;14.10;99.90;;;;;;4989185;28;20039;-89
2022/06/16 03:49:43;;;;;;;6.70;5.70;;;14.30;99.90;;;;;;4988948;28;19929;-90
2022/06/16 03:52:11;;;;;;;4.53;4.13;;;14.20;99.90;;;;;;4972149;28;20059;-90
2022/06/16 03:54:46;;;;;;;16.90;5.13;;;14.20;99.90;;;;;;4989811;28;20220;-90
2022/06/16 03:57:15;;;;;;;4.72;4.38;;;14.00;99.90;;;;;;4974125;28;20038;-92
2022/06/16 03:59:43;;;;;;;6.85;5.07;;;13.90;99.90;;;;;;4973733;28;20043;-91
2022/06/16 04:06:46;;;;;;;6.88;5.43;;;13.90;99.90;;;;;;4977128;28;20035;-91
2022/06/16 04:09:18;;;;;;;14.70;6.10;;;13.90;99.90;;;;;;4977194;28;20047;-92
2022/06/16 04:11:47;;;;;;;5.88;5.30;;;14.00;99.90;;;;;;4976851;28;20043;-93
2022/06/16 04:14:18;;;;;;;8.27;7.25;;;14.10;99.90;;;;;;4977477;28;20050;-91
2022/06/16 04:16:58;;;;;;;14.25;6.88;;;14.20;99.90;;;;;;4993365;28;20051;-92
2022/06/16 04:19:32;;;;;;;6.95;6.28;;;14.40;99.90;;;;;;4968448;28;20050;-92
2022/06/16 04:22:01;;;;;;;6.75;6.13;;;14.50;99.90;;;;;;4992780;28;20408;-91
2022/06/16 04:24:38;;;;;;;8.25;5.28;;;14.70;99.90;;;;;;4976820;28;20058;-91
2022/06/16 04:27:07;;;;;;;6.22;5.15;;;14.80;99.90;;;;;;4992065;28;20050;-91
2022/06/16 04:29:39;;;;;;;5.93;5.43;;;14.90;99.90;;;;;;4976368;28;20062;-91
2022/06/16 04:32:08;;;;;;;5.90;5.10;;;15.00;99.90;;;;;;4959711;28;20054;-92
2022/06/16 05:18:30;;;;;;;7.45;4.63;;;16.90;99.90;;;;;;4960684;28;20042;-92
2022/06/16 05:21:17;;;;;;;6.13;5.05;;;16.90;99.90;;;;;;4977891;28;20499;-92
2022/06/16 05:24:20;;;;;;;7.25;5.68;;;17.10;99.90;;;;;;4944750;28;20058;-91
2022/06/16 05:27:38;;;;;;;5.07;4.68;;;17.30;99.90;;;;;;4959981;28;20050;-92
2022/06/16 05:30:24;;;;;;;5.32;4.72;;;17.40;99.90;;;;;;4943363;28;20043;-93
2022/06/16 05:33:05;;;;;;;4.93;4.43;;;17.70;99.90;;;;;;4943726;28;20054;-93
2022/06/16 05:36:06;;;;;;;20.70;7.50;;;17.90;99.90;;;;;;4958627;28;20073;-91
2022/06/16 05:38:47;;;;;;;8.10;4.80;;;18.00;99.90;;;;;;4952786;28;20516;-91
2022/06/16 05:41:35;;;;;;;5.75;4.72;;;18.10;99.90;;;;;;4946562;28;20416;-91
2022/06/16 05:44:09;;;;;;;5.15;4.60;;;18.20;99.90;;;;;;4975231;28;20043;-92
2022/06/16 05:46:48;;;;;;;6.05;4.43;;;18.40;99.90;;;;;;4944904;28;20047;-92
2022/06/16 05:49:21;;;;;;;5.57;4.38;;;18.50;99.90;;;;;;4974673;28;20400;-90
2022/06/16 05:51:57;;;;;;;5.47;3.92;;;18.70;99.90;;;;;;4958122;28;20822;-91
2022/06/16 05:54:35;;;;;;;5.00;4.45;;;18.70;99.90;;;;;;4974720;28;20039;-92
2022/06/16 05:57:26;;;;;;;5.13;4.60;;;18.80;99.90;;;;;;4948616;28;20404;-92
2022/06/16 06:00:10;;;;;;;4.20;3.90;;;18.90;99.90;;;;;;4945780;28;20509;-90
2022/06/16 06:03:06;;;;;;;6.20;3.92;;;19.20;99.90;;;;;;4976311;28;20396;-92
2022/06/16 06:05:42;;;;;;;5.38;4.45;;;19.40;99.90;;;;;;4959283;28;20055;-90
2022/06/16 06:16:44;;;;;;;4.18;3.88;;;19.90;99.90;;;;;;4959110;28;20051;-94
2022/06/16 06:19:23;;;;;;;8.02;3.83;;;20.00;99.90;;;;;;4947782;28;20567;-91
2022/06/16 06:25:21;;;;;;;4.38;3.72;;;20.30;99.90;;;;;;4903070;28;20067;-91
2022/06/16 06:28:01;;;;;;;4.93;3.33;;;20.40;99.90;;;;;;4955938;28;20074;-93
2022/06/16 06:30:34;;;;;;;;;;;20.50;99.90;;;;;;4974105;28;20050;-91
2022/06/16 06:33:20;;;;;;;4.70;4.07;;;20.50;99.90;;;;;;4957306;28;19922;-93
2022/06/16 06:35:49;;;;;;;4.70;4.20;;;20.50;99.90;;;;;;4974704;28;20511;-93
2022/06/16 06:38:19;;;;;;;9.70;4.25;;;20.70;99.90;;;;;;4938728;29;20062;-91
2022/06/16 06:41:04;;;;;;;5.35;4.32;;;20.90;99.90;;;;;;4943863;29;20055;-93
2022/06/16 06:43:58;;;;;;;;;;;;;;;;;;;;;
2022/06/16 06:46:46;;;;;;;4.25;3.92;;;21.20;99.90;;;;;;4954412;29;20058;-93
2022/06/16 06:52:48;;;;;;;5.32;4.15;;;21.50;99.90;;;;;;4938496;29;19931;-92
2022/06/16 06:59:06;;;;;;;4.00;3.65;;;21.70;99.90;;;;;;4913801;29;20044;-95
2022/06/16 07:01:36;;;;;;;17.40;3.42;;;22.10;99.90;;;;;;4928211;29;20045;-84
2022/06/16 07:04:04;;;;;;;9.80;3.85;;;22.50;99.90;;;;;;4911014;29;20052;-86
2022/06/16 07:06:33;;;;;;;9.13;4.13;;;22.80;99.90;;;;;;4911106;29;20055;-84
2022/06/16 07:09:00;;;;;;;9.40;3.72;;;23.00;99.90;;;;;;4911596;29;20060;-86
2022/06/16 07:11:28;;;;;;;5.38;4.78;;;22.90;99.90;;;;;;4913302;29;20071;-87
2022/06/16 07:13:58;;;;;;;11.30;4.38;;;22.80;99.90;;;;;;4896873;29;20044;-88
2022/06/16 07:16:26;;;;;;;11.85;5.13;;;22.80;99.90;;;;;;4902758;29;20491;-88
2022/06/16 07:18:54;;;;;;;4.32;3.70;;;22.70;99.90;;;;;;4934389;28;20551;-84
2022/06/16 07:21:23;;;;;;;5.32;3.15;;;22.50;99.90;;;;;;4949483;29;20051;-83
2022/06/16 07:23:52;;;;;;;4.82;3.50;;;22.30;99.90;;;;;;4933318;29;20047;-85
2022/06/16 07:26:23;;;;;;;;;;;22.20;99.90;;;;;;4949131;28;20055;-88
2022/06/16 07:28:51;;;;;;;3.70;3.28;;;22.30;99.90;;;;;;4969629;28;19933;-85
2022/06/16 07:31:19;;;;;;;6.22;3.88;;;22.60;99.90;;;;;;4970993;28;20648;-89
2022/06/16 07:34:03;;;;;;;5.63;3.53;;;22.60;99.90;;;;;;4971487;28;20721;-87
2022/06/16 07:36:31;;;;;;;6.07;3.42;;;22.70;99.90;;;;;;4973497;28;20440;-87
2022/06/16 07:38:59;;;;;;;4.90;4.30;;;22.80;99.90;;;;;;4974234;28;20055;-86
2022/06/16 07:41:36;;;;;;;6.47;3.63;;;22.60;99.90;;;;;;4953240;28;20054;-88
2022/06/16 07:44:10;;;;;;;3.75;3.45;;;22.40;99.90;;;;;;4973453;28;20444;-86
2022/06/16 07:46:39;;;;;;;6.97;4.28;;;22.30;99.90;;;;;;4974491;28;20038;-86
2022/06/16 07:49:33;;;;;;;6.85;3.67;;;22.20;99.90;;;;;;4984020;28;20401;-88
2022/06/16 07:52:01;;;;;;;6.05;4.43;;;22.10;99.90;;;;;;4973691;28;20058;-90
2022/06/16 07:54:30;;;;;;;9.18;4.82;;;22.00;99.90;;;;;;4976168;28;20035;-87
2022/06/16 07:57:20;;;;;;;5.53;4.40;;;22.00;99.90;;;;;;4984608;28;20051;-87
2022/06/16 08:00:11;;;;;;;11.60;4.68;;;21.80;99.90;;;;;;4973589;28;20061;-88
2022/06/16 08:02:41;;;;;;;16.00;4.55;;;21.80;99.90;;;;;;4970283;28;20039;-86
2022/06/16 08:05:14;;;;;;;6.43;3.92;;;21.70;99.90;;;;;;4974533;28;20058;-86
2022/06/16 08:07:43;;;;;;;4.75;4.28;;;21.60;99.90;;;;;;4973342;28;20050;-83
2022/06/16 08:10:16;;;;;;;5.63;4.18;;;21.60;99.90;;;;;;4973330;28;20046;-84
2022/06/16 08:12:44;;;;;;;7.53;5.20;;;21.50;99.90;;;;;;4982793;28;20046;-87
2022/06/16 08:15:13;;;;;;;9.88;5.57;;;21.50;99.90;;;;;;4975464;28;20046;-89
2022/06/16 08:17:45;;;;;;;12.38;4.75;;;21.40;99.90;;;;;;4961035;28;20062;-86
2022/06/16 08:20:13;;;;;;;3.97;3.60;;;21.40;99.90;;;;;;4954081;29;20054;-86
2022/06/16 08:22:42;;;;;;;5.93;4.35;;;21.40;99.90;;;;;;4954290;29;20670;-85
2022/06/16 08:25:15;;;;;;;4.28;3.97;;;21.40;99.90;;;;;;4937612;29;20055;-87
2022/06/16 08:27:49;;;;;;;9.13;4.72;;;21.40;99.90;;;;;;4955548;29;20052;-90
2022/06/16 08:30:25;;;;;;;15.60;6.65;;;21.50;99.90;;;;;;4930927;29;20054;-89
2022/06/16 08:33:02;;;;;;;4.70;4.25;;;21.60;99.90;;;;;;4956637;29;20043;-89
2022/06/16 08:35:57;;;;;;;6.50;3.97;;;21.80;99.90;;;;;;4931706;28;20525;-90
2022/06/16 08:38:27;;;;;;;8.30;4.75;;;22.00;99.90;;;;;;4933877;29;20051;-87
2022/06/16 08:41:17;;;;;;;6.30;4.88;;;22.10;99.90;;;;;;4932834;29;20519;-89
2022/06/16 08:44:00;;;;;;;8.80;5.25;;;22.20;99.90;;;;;;4906861;29;20054;-84
2022/06/16 08:46:36;;;;;;;6.90;4.50;;;22.50;99.90;;;;;;4932467;29;20064;-86
2022/06/16 08:49:15;;;;;;;5.70;4.10;;;22.60;99.90;;;;;;4931057;29;20060;-86
2022/06/16 08:52:08;;;;;;;8.75;4.55;;;22.70;99.90;;;;;;4932157;29;20052;-84
2022/06/16 08:54:46;;;;;;;4.78;4.38;;;22.70;99.90;;;;;;4916540;29;20055;-87
2022/06/16 08:57:35;;;;;;;14.13;5.88;;;22.60;99.90;;;;;;4931958;29;20055;-87
2022/06/16 09:00:14;;;;;;;10.80;4.38;;;22.50;99.90;;;;;;4932630;29;20055;-84
2022/06/16 09:02:50;;;;;;;6.40;3.67;;;22.60;99.90;;;;;;4931335;29;20726;-87
2022/06/16 09:05:47;;;;;;;9.35;4.20;;;22.60;99.90;;;;;;4932433;29;20059;-85
2022/06/16 09:08:39;;;;;;;6.82;5.63;;;22.60;99.90;;;;;;4936623;29;20481;-84
2022/06/16 09:11:35;;;;;;;4.75;4.25;;;22.60;99.90;;;;;;4953230;28;20525;-84
2022/06/16 09:15:10;;;;;;;4.30;3.85;;;22.70;99.90;;;;;;4952807;28;20054;-83
2022/06/16 09:17:43;;;;;;;4.72;4.10;;;22.70;99.90;;;;;;4953375;29;20074;-85
2022/06/16 09:20:40;;;;;;;5.25;3.97;;;22.60;99.90;;;;;;4899958;29;20044;-84
2022/06/16 09:23:08;;;;;;;6.78;3.35;;;22.90;99.90;;;;;;4933921;29;20048;-84
2022/06/16 09:25:53;;;;;;;7.63;5.20;;;23.10;99.90;;;;;;4934603;29;20051;-83
2022/06/16 09:28:31;;;;;;;9.57;4.72;;;23.30;99.90;;;;;;4941502;29;20056;-83
2022/06/16 09:31:06;;;;;;;5.68;4.30;;;23.60;99.90;;;;;;4933887;29;20055;-84
2022/06/16 09:33:39;;;;;;;6.07;4.28;;;23.70;99.90;;;;;;4934821;29;20561;-86
2022/06/16 09:36:19;;;;;;;9.15;4.72;;;23.80;99.90;;;;;;4933735;29;20035;-82
2022/06/16 09:39:24;;;;;;;6.60;3.83;;;23.80;99.90;;;;;;4933771;29;20695;-86
2022/06/16 09:42:35;;;;;;;6.15;4.68;;;23.90;99.90;;;;;;4911464;29;20276;-83
2022/06/16 09:45:26;;;;;;;5.53;4.30;;;24.10;99.90;;;;;;4941136;29;20059;-85
2022/06/16 09:48:06;;;;;;;6.85;4.72;;;24.20;99.90;;;;;;4916029;29;20048;-84
2022/06/16 09:50:56;;;;;;;4.82;4.43;;;24.40;99.90;;;;;;4933513;29;20043;-85
2022/06/16 09:53:29;;;;;;;4.45;4.05;;;24.40;99.90;;;;;;4938556;28;20062;-85
2022/06/16 09:56:26;;;;;;;8.00;4.07;;;24.40;99.90;;;;;;4971496;28;20062;-86
2022/06/16 09:59:02;;;;;;;6.88;3.80;;;24.30;99.90;;;;;;4971083;28;20050;-86
2022/06/16 10:01:48;;;;;;;4.30;3.70;;;24.30;99.90;;;;;;4968585;28;20047;-85
2022/06/16 10:04:16;;;;;;;4.88;3.58;;;24.10;99.90;;;;;;4951956;29;20778;-85
2022/06/16 10:07:03;;;;;;;15.35;4.22;;;24.10;99.90;;;;;;4952321;29;20055;-87
2022/06/16 10:09:52;;;;;;;5.55;3.97;;;24.10;99.90;;;;;;4949110;29;20047;-86
2022/06/16 10:12:31;;;;;;;18.27;5.63;;;24.10;99.90;;;;;;4949263;29;20074;-86
2022/06/16 10:15:05;;;;;;;13.05;4.57;;;24.00;99.90;;;;;;4964701;28;20042;-90
2022/06/16 10:17:35;;;;;;;6.78;4.65;;;24.10;99.90;;;;;;4983856;28;20050;-83
2022/06/16 10:20:05;;;;;;;4.07;3.77;;;24.20;99.90;;;;;;4983314;28;20050;-84
2022/06/16 10:22:37;;;;;;;5.05;4.00;;;24.50;99.90;;;;;;4990468;28;20038;-81
2022/06/16 10:25:17;;;;;;;5.60;3.92;;;24.80;99.90;;;;;;4989941;28;20057;-86
2022/06/16 10:27:52;;;;;;;4.40;4.00;;;25.00;99.90;;;;;;4972315;28;20046;-85
2022/06/16 10:30:32;;;;;;;5.82;4.28;;;25.20;99.90;;;;;;4991063;28;20050;-84
2022/06/16 10:33:03;;;;;;;5.05;3.50;;;25.40;99.90;;;;;;4991439;28;20395;-84
2022/06/16 10:35:32;;;;;;;6.90;3.92;;;25.40;99.90;;;;;;4990694;28;20049;-84
2022/06/16 10:38:00;;;;;;;12.88;4.13;;;25.10;99.90;;;;;;4976079;28;20135;-91
2022/06/16 10:40:36;;;;;;;8.18;4.03;;;24.80;99.90;;;;;;4972341;28;20043;-88
2022/06/16 10:43:25;;;;;;;7.50;4.60;;;24.60;99.90;;;;;;4971509;28;20050;-88
2022/06/16 10:46:28;;;;;;;6.18;4.03;;;24.30;99.90;;;;;;4971313;28;20066;-88
2022/06/16 10:49:01;;;;;;;9.68;3.63;;;23.90;99.90;;;;;;4954073;28;20047;-86
2022/06/16 10:51:30;;;;;;;7.82;4.78;;;23.80;99.90;;;;;;4953802;28;20408;-88
2022/06/16 10:54:13;;;;;;;5.15;4.15;;;23.60;99.90;;;;;;4953888;28;20389;-86
2022/06/16 10:56:46;;;;;;;7.65;4.70;;;23.60;99.90;;;;;;4953538;28;20484;-85
2022/06/16 10:59:14;;;;;;;11.13;4.65;;;23.50;99.90;;;;;;4970377;28;20422;-88
2022/06/16 11:01:53;;;;;;;5.40;4.35;;;23.50;99.90;;;;;;4954494;28;20107;-84
2022/06/16 11:04:25;;;;;;;4.35;3.92;;;23.50;99.90;;;;;;4968512;28;20042;-84
2022/06/16 11:06:55;;;;;;;;;;;23.60;99.90;;;;;;4954155;28;20642;-92
2022/06/16 11:09:27;;;;;;;6.28;4.25;;;23.60;99.90;;;;;;4938643;28;19929;-86
2022/06/16 11:12:05;;;;;;;6.05;4.20;;;23.70;99.90;;;;;;4972850;28;20053;-85
2022/06/16 11:14:41;;;;;;;6.30;4.40;;;23.70;99.90;;;;;;4957537;28;20555;-85
2022/06/16 11:17:16;;;;;;;9.18;4.53;;;23.60;99.90;;;;;;4975114;28;20051;-84
2022/06/16 11:20:12;;;;;;;5.43;3.13;;;23.00;99.90;;;;;;4975010;28;20701;-92
2022/06/16 11:22:43;;;;;;;6.88;3.63;;;22.10;99.90;;;;;;4965116;28;20046;-88
2022/06/16 11:25:21;;;;;;;4.53;4.10;;;21.50;99.90;;;;;;4975018;28;20059;-84
2022/06/16 11:27:56;;;;;;;4.50;4.05;;;21.20;99.90;;;;;;4962400;28;20047;-83
2022/06/16 11:30:43;;;;;;;4.57;3.53;;;20.90;99.90;;;;;;4974471;28;20050;-82
2022/06/16 11:37:08;;;;;;;3.55;3.25;;;21.10;99.90;;;;;;4982360;28;20043;-91
2022/06/16 11:39:40;;;;;;;4.25;3.53;;;21.90;99.90;;;;;;4880426;29;20523;-83
2022/06/16 11:42:33;;;;;;;7.75;2.97;;;22.30;99.90;;;;;;4962865;28;20396;-83
2022/06/16 11:45:12;;;;;;;6.38;3.75;;;22.70;99.90;;;;;;4973926;28;20436;-86
2022/06/16 11:48:00;;;;;;;4.53;3.42;;;23.10;99.90;;;;;;4970347;28;20069;-83
2022/06/16 11:50:49;;;;;;;15.90;3.05;;;23.50;99.90;;;;;;4988758;28;20610;-85
2022/06/16 11:53:42;;;;;;;3.15;2.85;;;23.60;99.90;;;;;;4973815;28;20047;-87
2022/06/16 11:56:22;;;;;;;5.00;4.35;;;23.90;99.90;;;;;;4956609;28;20047;-90
2022/06/16 11:59:11;;;;;;;4.90;4.05;;;24.10;99.90;;;;;;4972853;28;20054;-87
2022/06/16 12:01:46;;;;;;;12.00;4.50;;;24.40;99.90;;;;;;4973105;28;20497;-86
2022/06/16 12:04:46;;;;;;;5.07;4.65;;;24.50;99.90;;;;;;4956293;28;20051;-88
2022/06/16 12:07:25;;;;;;;9.85;4.25;;;24.30;99.90;;;;;;4942196;28;20485;-88
2022/06/16 12:10:48;;;;;;;5.03;4.50;;;24.20;99.90;;;;;;4959341;28;20493;-88
2022/06/16 12:13:53;;;;;;;8.85;4.63;;;24.30;99.90;;;;;;4937778;29;20059;-87
2022/06/16 12:16:25;;;;;;;6.78;4.93;;;24.30;99.90;;;;;;4951995;29;20062;-85
2022/06/16 12:19:00;;;;;;;8.43;5.28;;;24.40;99.90;;;;;;4969546;28;20043;-84
2022/06/16 12:21:50;;;;;;;5.35;4.05;;;24.50;99.90;;;;;;4949399;28;20058;-84
2022/06/16 12:24:26;;;;;;;11.85;4.63;;;24.50;99.90;;;;;;4943478;29;20055;-85
2022/06/16 12:27:03;;;;;;;5.30;4.80;;;24.60;99.90;;;;;;4953051;29;20043;-85
2022/06/16 12:29:56;;;;;;;9.63;5.97;;;24.70;99.90;;;;;;4955324;29;20394;-86
2022/06/16 12:32:24;;;;;;;22.35;5.32;;;24.90;99.90;;;;;;4967939;28;20050;-80
2022/06/16 12:35:13;;;;;;;6.13;3.63;;;25.00;99.90;;;;;;4952691;28;20496;-80
2022/06/16 12:37:52;;;;;;;4.88;4.47;;;25.20;99.90;;;;;;4956234;28;20048;-80
2022/06/16 12:40:45;;;;;;;8.25;4.18;;;25.10;99.90;;;;;;4986759;28;20073;-79
2022/06/16 12:43:37;;;;;;;7.75;5.03;;;24.80;99.90;;;;;;4972722;28;20039;-81
2022/06/16 12:46:08;;;;;;;5.03;4.63;;;24.60;99.90;;;;;;4971883;28;20054;-81
2022/06/16 12:49:49;;;;;;;8.82;3.55;;;24.30;99.90;;;;;;4956320;28;20078;-79
2022/06/16 12:53:05;;;;;;;2.88;2.65;;;24.20;99.90;;;;;;4972773;28;20039;-80
2022/06/16 13:02:00;;;;;;;5.75;3.60;;;23.60;99.90;;;;;;4981971;28;20070;-80
2022/06/16 13:05:33;;;;;;;3.97;3.58;;;24.10;99.90;;;;;;4965062;28;20058;-80
2022/06/16 13:08:03;;;;;;;3.92;2.97;;;24.10;99.90;;;;;;4953171;28;20051;-81
2022/06/16 13:10:44;;;;;;;3.67;3.38;;;23.90;99.90;;;;;;4952077;29;20040;-81
2022/06/16 13:13:22;;;;;;;8.50;4.70;;;23.90;99.90;;;;;;4946137;29;20055;-81
2022/06/16 13:16:00;;;;;;;8.20;4.32;;;23.70;99.90;;;;;;4968136;28;20043;-83
2022/06/16 13:18:33;;;;;;;4.35;3.38;;;23.40;99.90;;;;;;4967140;28;20042;-81
2022/06/16 13:21:05;;;;;;;5.18;3.50;;;23.10;99.90;;;;;;4973412;28;20050;-83
2022/06/16 13:23:39;;;;;;;3.33;3.13;;;23.00;99.90;;;;;;4955708;28;20042;-83
2022/06/16 13:27:01;;;;;;;7.38;3.42;;;23.00;99.90;;;;;;4968670;28;20061;-87
2022/06/16 13:30:45;;;;;;;3.70;3.08;;;23.00;99.90;;;;;;4960803;28;20062;-85
2022/06/16 13:33:31;;;;;;;3.40;2.83;;;22.80;99.90;;;;;;4947802;28;20046;-84
2022/06/16 13:36:22;;;;;;;4.55;3.88;;;22.80;99.90;;;;;;4970767;28;20057;-88
2022/06/16 13:38:52;;;;;;;8.75;4.18;;;23.30;99.90;;;;;;4945471;28;20484;-86
2022/06/16 13:41:40;;;;;;;3.20;2.83;;;23.60;99.90;;;;;;4968192;28;20047;-86
2022/06/16 13:44:20;;;;;;;10.02;3.28;;;23.70;99.90;;;;;;4967550;28;20409;-84
2022/06/16 13:46:54;;;;;;;6.25;3.90;;;23.60;99.90;;;;;;4967429;28;20050;-84
2022/06/16 13:49:31;;;;;;;7.60;3.70;;;23.50;99.90;;;;;;4987448;28;20039;-84
2022/06/16 13:52:08;;;;;;;8.18;3.60;;;23.30;99.90;;;;;;4970661;28;20053;-87
2022/06/16 13:54:37;;;;;;;8.27;5.50;;;23.10;99.90;;;;;;4987438;28;20035;-84
2022/06/16 13:57:25;;;;;;;14.85;4.38;;;23.40;99.90;;;;;;4989474;28;20046;-86
2022/06/16 13:59:58;;;;;;;3.20;2.97;;;23.40;99.90;;;;;;4989822;28;20514;-85
2022/06/16 14:03:00;;;;;;;4.18;3.78;;;23.10;99.90;;;;;;5006118;28;20030;-85
2022/06/16 14:06:29;;;;;;;6.70;3.67;;;22.80;99.90;;;;;;4966334;28;20055;-88
2022/06/16 14:09:11;;;;;;;3.22;3.03;;;22.80;99.90;;;;;;4954606;28;20058;-90
2022/06/16 14:11:44;;;;;;;4.50;3.28;;;22.80;99.90;;;;;;4897304;28;20069;-83
2022/06/16 14:14:16;;;;;;;13.18;4.07;;;22.70;99.90;;;;;;4950842;28;20043;-83
2022/06/16 14:16:48;;;;;;;15.95;5.30;;;22.60;99.90;;;;;;4953884;28;20046;-85
2022/06/16 14:19:35;;;;;;;6.72;5.07;;;22.60;99.90;;;;;;4969830;28;20054;-82
2022/06/16 14:26:52;;;;;;;15.50;6.03;;;23.10;99.90;;;;;;4971093;28;20053;-87
2022/06/16 14:29:24;;;;;;;5.65;4.15;;;23.10;99.90;;;;;;4970256;28;20069;-83
2022/06/16 14:33:25;;;;;;;4.57;3.90;;;23.10;99.90;;;;;;4967801;28;20046;-87
2022/06/16 14:36:21;;;;;;;6.35;4.03;;;23.00;99.90;;;;;;4966518;28;20050;-85
2022/06/16 14:39:41;;;;;;;5.43;4.93;;;23.40;99.90;;;;;;4967522;28;20070;-87
2022/06/16 14:43:12;;;;;;;5.22;4.63;;;23.70;99.90;;;;;;4963822;28;20047;-86
2022/06/16 14:45:46;;;;;;;4.70;4.35;;;23.80;99.90;;;;;;4969805;28;20055;-87
2022/06/16 14:48:45;;;;;;;6.90;4.18;;;23.70;99.90;;;;;;4969704;28;20063;-86
2022/06/16 14:51:22;;;;;;;5.00;4.53;;;23.90;99.90;;;;;;4962196;28;20046;-87
2022/06/16 14:53:58;;;;;;;8.52;3.47;;;24.20;99.90;;;;;;4969623;28;20051;-86
2022/06/16 14:56:27;;;;;;;7.10;3.63;;;24.50;99.90;;;;;;4970305;28;20046;-88
2022/06/16 14:59:14;;;;;;;5.07;4.57;;;24.70;99.90;;;;;;4971197;28;20047;-87
2022/06/16 15:01:53;;;;;;;4.70;3.47;;;24.80;99.90;;;;;;4970207;28;20055;-89
2022/06/16 15:04:29;;;;;;;3.50;3.20;;;24.80;99.90;;;;;;4984566;28;20054;-89
2022/06/16 15:07:02;;;;;;;4.10;3.70;;;24.40;99.90;;;;;;4969768;28;20559;-91
2022/06/16 15:10:00;;;;;;;8.10;3.13;;;24.30;99.90;;;;;;4956396;28;20059;-89
2022/06/16 15:12:29;;;;;;;4.47;4.05;;;24.30;99.90;;;;;;4915471;29;20088;-87
2022/06/16 15:14:58;;;;;;;8.25;3.85;;;24.50;99.90;;;;;;4951156;28;20046;-89
2022/06/16 15:21:51;;;;;;;10.70;4.22;;;24.30;99.90;;;;;;4957422;28;19918;-87
2022/06/16 15:25:34;;;;;;;4.72;4.20;;;24.40;99.90;;;;;;4902631;29;20043;-88
2022/06/16 15:29:11;;;;;;;5.28;3.92;;;24.20;99.90;;;;;;4981618;28;20618;-87
2022/06/16 15:36:24;;;;;;;4.45;4.05;;;24.80;99.90;;;;;;4900164;29;20532;-88
2022/06/16 15:38:53;;;;;;;4.13;3.72;;;24.90;99.90;;;;;;4905102;29;20401;-86
2022/06/16 15:41:46;;;;;;;6.95;4.47;;;25.10;99.90;;;;;;4913246;29;20055;-87
2022/06/16 15:44:43;;;;;;;7.85;3.78;;;25.20;99.90;;;;;;4896536;29;20042;-83
2022/06/16 15:47:20;;;;;;;4.00;3.63;;;25.30;99.90;;;;;;4947419;28;20042;-84
2022/06/16 15:49:58;;;;;;;5.15;4.07;;;25.50;99.90;;;;;;4956482;28;20411;-83
2022/06/16 15:52:36;;;;;;;3.78;3.47;;;25.70;99.90;;;;;;4971624;28;20054;-84
2022/06/16 15:55:14;;;;;;;5.88;3.10;;;25.40;99.90;;;;;;4972816;28;20054;-83
2022/06/16 15:57:44;;;;;;;5.57;3.40;;;25.60;99.90;;;;;;4991765;28;20050;-82
2022/06/16 16:00:20;;;;;;;7.13;3.47;;;25.90;99.90;;;;;;4993052;28;20042;-82
2022/06/16 16:02:50;;;;;;;12.27;3.50;;;26.10;99.50;;;;;;4973951;28;20039;-85
2022/06/16 16:05:22;;;;;;;6.65;3.08;;;26.20;98.00;;;;;;4974510;28;20047;-83
2022/06/16 16:07:51;;;;;;;2.90;2.67;;;26.30;98.20;;;;;;4973558;28;20073;-82
2022/06/16 16:10:23;;;;;;;7.05;3.72;;;26.30;97.90;;;;;;4974004;28;20053;-81
2022/06/16 16:13:13;;;;;;;7.47;3.50;;;26.30;98.10;;;;;;4974192;28;20049;-85